createdAt,value
2022-10-29T00:01:13.697Z,22.85
2022-10-29T00:06:16.178Z,23.60
2022-10-29T00:11:20.768Z,24.23
2022-10-29T00:16:24.177Z,26.70
2022-10-29T00:26:30.424Z,23.73
2022-10-29T00:31:32.875Z,25.77
2022-10-29T00:36:35.282Z,30.37
2022-10-29T00:41:39.008Z,35.60
2022-10-29T00:46:41.669Z,24.00
2022-10-29T00:51:44.940Z,24.57
2022-10-29T00:56:49.933Z,24.73
2022-10-29T01:01:52.649Z,24.70
2022-10-29T01:06:55.424Z,31.47
2022-10-29T01:12:04.140Z,28.67
2022-10-29T01:17:10.539Z,26.42
2022-10-29T01:22:17.535Z,31.60
2022-10-29T01:27:34.796Z,33.08
2022-10-29T01:32:43.685Z,31.80
2022-10-29T01:37:50.834Z,32.55
2022-10-29T01:42:55.140Z,25.70
2022-10-29T01:48:01.440Z,26.67
2022-10-29T01:53:05.199Z,29.02
2022-10-29T01:58:07.944Z,24.42
2022-10-29T02:03:18.506Z,23.55
2022-10-29T02:08:23.250Z,33.25
2022-10-29T02:13:30.879Z,26.70
2022-10-29T02:18:39.975Z,28.73
2022-10-29T02:23:42.419Z,33.55
2022-10-29T02:28:44.792Z,29.85
2022-10-29T02:33:48.509Z,35.33
2022-10-29T02:38:50.965Z,32.15
2022-10-29T02:43:53.393Z,32.78
2022-10-29T02:48:57.193Z,35.83
2022-10-29T02:53:59.643Z,33.67
2022-10-29T02:59:03.404Z,29.45
2022-10-29T03:04:09.053Z,43.83
2022-10-29T03:09:11.451Z,43.78
2022-10-29T03:14:13.790Z,44.92
2022-10-29T03:19:17.480Z,47.47
2022-10-29T03:24:19.868Z,77.50
2022-10-29T03:29:22.227Z,52.15
2022-10-29T03:34:25.912Z,66.95
2022-10-29T03:39:28.373Z,51.22
2022-10-29T03:44:30.779Z,69.20
2022-10-29T03:49:34.502Z,73.25
2022-10-29T03:54:36.925Z,52.78
2022-10-29T03:59:39.291Z,47.40
2022-10-29T04:04:43.004Z,55.00
2022-10-29T04:09:45.355Z,41.97
2022-10-29T04:14:48.379Z,40.50
2022-10-29T04:19:52.142Z,45.38
2022-10-29T04:30:16.988Z,40.28
2022-10-29T04:35:20.664Z,41.30
2022-10-29T04:40:24.288Z,45.33
2022-10-29T04:45:26.638Z,36.67
2022-10-29T04:50:30.557Z,40.25
2022-10-29T04:55:33.106Z,37.88
2022-10-29T05:00:35.519Z,33.90
2022-10-29T05:05:39.818Z,36.00
2022-10-29T05:10:42.179Z,31.58
2022-10-29T05:15:47.901Z,23.58
2022-10-29T05:20:55.773Z,25.35
2022-10-29T05:25:58.217Z,28.45
2022-10-29T05:31:01.543Z,32.17
2022-10-29T05:36:05.794Z,38.17
2022-10-29T05:41:08.147Z,32.80
2022-10-29T05:46:10.516Z,37.20
2022-10-29T05:51:14.284Z,38.38
2022-10-29T05:56:16.730Z,40.13
2022-10-29T06:01:19.718Z,35.78
2022-10-29T06:06:23.664Z,37.70
2022-10-29T06:11:26.134Z,47.30
2022-10-29T06:16:28.485Z,44.50
2022-10-29T06:21:32.154Z,40.63
2022-10-29T06:26:34.731Z,47.17
2022-10-29T06:31:37.164Z,49.20
2022-10-29T06:36:40.973Z,50.75
2022-10-29T06:41:43.331Z,47.38
2022-10-29T06:46:45.649Z,41.10
2022-10-29T06:51:49.362Z,44.22
2022-10-29T06:56:51.714Z,44.17
2022-10-29T07:01:54.088Z,65.95
2022-10-29T07:06:57.784Z,63.33
2022-10-29T07:12:00.136Z,65.05
2022-10-29T07:17:02.508Z,58.22
2022-10-29T07:22:06.179Z,50.63
2022-10-29T07:27:09.353Z,57.05
2022-10-29T07:37:15.297Z,55.30
2022-10-29T07:42:17.734Z,48.92
2022-10-29T07:47:20.085Z,50.17
2022-10-29T07:52:23.777Z,54.87
2022-10-29T07:57:26.240Z,54.70
2022-10-29T08:02:28.598Z,49.03
2022-10-29T08:07:32.296Z,49.73
2022-10-29T08:12:34.655Z,42.00
2022-10-29T08:17:37.040Z,48.50
2022-10-29T08:22:40.892Z,47.13
2022-10-29T08:27:43.758Z,34.55
2022-10-29T08:37:49.868Z,24.00
2022-10-29T08:42:58.495Z,18.50
2022-10-29T08:48:13.792Z,38.70
2022-10-29T08:53:23.156Z,18.55
2022-10-29T08:58:30.922Z,18.85
2022-10-29T09:03:33.721Z,22.27
2022-10-29T09:13:46.293Z,25.88
2022-10-29T09:18:54.864Z,16.92
2022-10-29T09:24:02.969Z,18.73
2022-10-29T09:29:24.425Z,23.88
2022-10-29T09:34:29.472Z,19.80
2022-10-29T09:39:34.510Z,17.63
2022-10-29T09:44:40.319Z,15.57
2022-10-29T09:49:48.747Z,20.88
2022-10-29T09:54:52.379Z,19.05
2022-10-29T09:59:57.761Z,18.45
2022-10-29T10:05:04.561Z,15.05
2022-10-29T10:10:08.451Z,21.85
2022-10-29T10:15:19.835Z,17.50
2022-10-29T10:20:30.251Z,16.13
2022-10-29T10:25:34.190Z,17.25
2022-10-29T10:30:38.234Z,17.58
2022-10-29T10:35:40.632Z,20.35
2022-10-29T10:40:43.726Z,19.90
2022-10-29T10:45:52.905Z,16.15
2022-10-29T10:51:10.142Z,15.65
2022-10-29T10:56:19.621Z,17.88
2022-10-29T11:01:26.236Z,14.50
2022-10-29T11:06:31.101Z,17.35
2022-10-29T11:11:35.737Z,16.23
2022-10-29T11:16:40.642Z,16.92
2022-10-29T11:21:44.872Z,18.67
2022-10-29T11:26:49.226Z,17.63
2022-10-29T11:31:58.315Z,18.65
2022-10-29T11:37:03.611Z,16.05
2022-10-29T11:42:07.852Z,15.57
2022-10-29T11:47:21.937Z,14.63
2022-10-29T11:52:33.277Z,14.95
2022-10-29T11:57:39.284Z,16.45
2022-10-29T12:02:53.292Z,14.48
2022-10-29T12:08:02.376Z,14.90
2022-10-29T12:13:09.775Z,13.90
2022-10-29T12:18:19.447Z,13.05
2022-10-29T12:23:27.374Z,16.92
2022-10-29T12:28:34.315Z,12.40
2022-10-29T12:33:40.878Z,10.27
2022-10-29T12:38:44.388Z,13.10
2022-10-29T12:43:48.409Z,9.15
2022-10-29T12:48:56.558Z,12.43
2022-10-29T12:54:09.916Z,10.93
2022-10-29T12:59:32.519Z,9.77
2022-10-29T13:04:36.221Z,13.37
2022-10-29T13:09:40.321Z,12.93
2022-10-29T13:14:45.431Z,12.40
2022-10-29T13:19:50.472Z,13.40
2022-10-29T13:25:07.702Z,16.98
2022-10-29T13:30:22.575Z,13.18
2022-10-29T13:35:42.156Z,11.23
2022-10-29T13:41:03.022Z,10.82
2022-10-29T13:46:29.541Z,9.98
2022-10-29T13:51:36.097Z,9.50
2022-10-29T13:56:42.416Z,7.97
2022-10-29T14:01:51.803Z,12.50
2022-10-29T14:06:56.978Z,12.27
2022-10-29T14:12:03.823Z,10.63
2022-10-29T14:17:13.003Z,15.82
2022-10-29T14:22:33.464Z,11.20
2022-10-29T14:27:37.173Z,13.15
2022-10-29T14:32:40.099Z,11.73
2022-10-29T14:37:43.932Z,12.10
2022-10-29T14:42:49.615Z,19.98
2022-10-29T14:47:53.285Z,9.18
2022-10-29T14:52:57.474Z,11.68
2022-10-29T14:58:04.335Z,9.18
2022-10-29T15:03:07.600Z,15.40
2022-10-29T15:08:15.101Z,15.18
2022-10-29T15:13:23.971Z,11.75
2022-10-29T15:18:26.719Z,14.73
2022-10-29T15:28:37.777Z,18.38
2022-10-29T15:33:40.134Z,15.93
2022-10-29T15:39:03.630Z,12.95
2022-10-29T15:44:26.614Z,10.55
2022-10-29T15:49:32.369Z,11.47
2022-10-29T15:54:35.438Z,13.30
2022-10-29T15:59:39.947Z,17.38
2022-10-29T16:04:42.406Z,17.20
2022-10-29T16:09:47.001Z,22.85
2022-10-29T16:14:50.726Z,16.48
2022-10-29T16:19:53.066Z,17.30
2022-10-29T16:24:55.698Z,15.23
2022-10-29T16:29:59.409Z,13.52
2022-10-29T16:35:01.783Z,17.00
2022-10-29T16:40:04.211Z,14.43
2022-10-29T16:45:10.068Z,17.42
2022-10-29T16:50:16.607Z,16.92
2022-10-29T16:55:18.918Z,12.77
2022-10-29T17:00:23.068Z,20.37
2022-10-29T17:05:25.407Z,20.33
2022-10-29T17:10:27.822Z,22.17
2022-10-29T17:15:31.488Z,23.05
2022-10-29T17:20:33.864Z,20.17
2022-10-29T17:25:36.231Z,15.82
2022-10-29T17:30:41.574Z,21.07
2022-10-29T17:35:44.141Z,20.60
2022-10-29T17:40:47.064Z,20.35
2022-10-29T17:45:51.514Z,18.50
2022-10-29T17:50:54.293Z,28.85
2022-10-29T17:55:58.598Z,18.80
2022-10-29T18:01:06.576Z,45.17
2022-10-29T18:06:10.481Z,35.50
2022-10-29T18:11:14.317Z,22.00
2022-10-29T18:16:19.302Z,21.42
2022-10-29T18:21:22.216Z,16.92
2022-10-29T18:26:25.636Z,23.00
2022-10-29T18:31:30.887Z,14.40
2022-10-29T18:36:35.361Z,19.13
2022-10-29T18:41:37.756Z,14.73
2022-10-29T18:46:41.546Z,15.23
2022-10-29T18:51:44.171Z,16.15
2022-10-29T18:56:46.530Z,16.88
2022-10-29T19:01:50.403Z,15.50
2022-10-29T19:06:54.703Z,16.20
2022-10-29T19:11:59.478Z,19.20
2022-10-29T19:17:03.487Z,18.83
2022-10-29T19:22:05.865Z,17.45
2022-10-29T19:27:08.210Z,17.90
2022-10-29T19:32:11.910Z,16.30
2022-10-29T19:37:14.251Z,19.95
2022-10-29T19:42:16.947Z,13.90
2022-10-29T19:47:20.720Z,21.48
2022-10-29T19:52:23.078Z,22.83
2022-10-29T19:57:25.498Z,20.40
2022-10-29T20:02:29.253Z,19.30
2022-10-29T20:07:31.630Z,14.38
2022-10-29T20:12:33.976Z,11.93
2022-10-29T20:17:37.751Z,13.60
2022-10-29T20:22:40.512Z,18.83
2022-10-29T20:27:42.889Z,17.55
2022-10-29T20:32:46.556Z,20.03
2022-10-29T20:37:49.170Z,20.60
2022-10-29T20:42:51.684Z,13.68
2022-10-29T20:47:55.915Z,14.50
2022-10-29T20:52:58.597Z,12.63
2022-10-29T20:58:01.264Z,16.00
2022-10-29T21:03:05.143Z,17.55
2022-10-29T21:08:07.937Z,15.30
2022-10-29T21:13:10.359Z,11.55
2022-10-29T21:18:14.091Z,18.08
2022-10-29T21:23:19.934Z,11.70
2022-10-29T21:28:26.090Z,14.40
2022-10-29T21:33:29.589Z,11.67
2022-10-29T21:38:33.505Z,14.93
2022-10-29T21:43:35.948Z,11.55
2022-10-29T21:48:38.406Z,17.70
2022-10-29T21:53:42.087Z,16.20
2022-10-29T21:58:44.594Z,18.42
2022-10-29T22:03:47.815Z,13.50
2022-10-29T22:08:54.664Z,13.38
2022-10-29T22:13:56.966Z,13.30
2022-10-29T22:18:59.284Z,12.53
2022-10-29T22:24:02.919Z,12.60
2022-10-29T22:29:05.245Z,11.98
2022-10-29T22:34:07.613Z,13.50
2022-10-29T22:39:11.414Z,12.80
2022-10-29T22:44:13.771Z,15.40
2022-10-29T22:49:16.293Z,16.20
2022-10-29T22:54:20.285Z,11.95
2022-10-29T22:59:22.644Z,16.58
2022-10-29T23:04:25.724Z,15.10
2022-10-29T23:09:29.421Z,14.43
2022-10-29T23:14:31.748Z,15.32
2022-10-29T23:19:34.103Z,15.97
2022-10-29T23:24:37.801Z,15.83
2022-10-29T23:29:40.149Z,14.10
2022-10-29T23:34:42.491Z,16.87
2022-10-29T23:39:46.172Z,22.70
2022-10-29T23:44:48.501Z,17.00
2022-10-29T23:49:50.844Z,23.07
2022-10-29T23:54:54.540Z,18.90
2022-10-29T23:59:56.862Z,22.65
